Time;durP1;ratioP1;P1;durP2;ratioP2;P2;SDS_P1;SDS_P2;PMS_P1;PMS_P2;Temp;Humidity;BMP_temperature;BMP_pressure;BME280_temperature;BME280_humidity;BME280_pressure;Samples;Min_cycle;Max_cycle;Signal;HPM_P1;HPM_P2
2022/09/03 00:00:08;;;;;;;15.38;9.48;;;;;;;12.88;56.28;100445.61;1779146;79;21254;-69
2022/09/03 00:02:46;;;;;;;14.23;9.20;;;;;;;12.86;56.23;100440.98;1779733;80;21511;-69
2022/09/03 00:05:34;;;;;;;17.15;10.30;;;;;;;12.84;56.31;100445.83;1761714;80;21060;-69
2022/09/03 00:08:36;;;;;;;14.70;9.48;;;;;;;12.80;56.35;100440.10;1740979;79;21460;-71
2022/09/03 00:11:31;;;;;;;10.88;8.95;;;;;;;12.79;56.65;100441.69;1796879;79;21074;-69
2022/09/03 00:14:06;;;;;;;17.02;9.63;;;;;;;12.74;56.82;100445.12;1767552;79;21853;-69
2022/09/03 00:16:59;;;;;;;22.95;9.43;;;;;;;12.71;56.90;100449.64;1791715;78;20911;-72
2022/09/03 00:19:34;;;;;;;15.15;9.70;;;;;;;12.70;57.05;100443.16;1796700;79;20981;-73
2022/09/03 00:22:10;;;;;;;15.13;10.23;;;;;;;12.70;57.06;100449.91;1796290;79;20958;-74
2022/09/03 00:24:39;;;;;;;17.85;10.90;;;;;;;12.68;57.08;100448.27;1795891;79;21038;-82
2022/09/03 00:27:10;;;;;;;14.78;10.30;;;;;;;12.63;57.25;100444.14;1796772;78;21194;-77
2022/09/03 00:29:42;;;;;;;13.20;10.08;;;;;;;12.64;57.34;100452.53;1772276;79;21467;-77
2022/09/03 00:32:28;;;;;;;14.03;10.43;;;;;;;12.64;57.37;100445.78;1795279;79;21633;-78
2022/09/03 00:34:58;;;;;;;13.90;9.78;;;;;;;12.62;57.48;100451.12;1747214;79;21510;-77
2022/09/03 00:37:28;;;;;;;12.00;9.90;;;;;;;12.62;57.59;100444.37;1794761;79;21558;-73
2022/09/03 00:39:54;;;;;;;15.03;8.68;;;;;;;12.64;57.61;100440.91;1782199;79;22104;-73
2022/09/03 00:42:48;;;;;;;12.75;8.80;;;;;;;12.64;57.72;100443.08;1761204;79;20974;-74
2022/09/03 00:45:34;;;;;;;13.72;9.55;;;;;;;12.63;57.77;100448.19;1765371;81;21545;-73
2022/09/03 00:48:12;;;;;;;12.60;10.23;;;;;;;12.60;57.65;100449.22;1766718;78;20939;-71
2022/09/03 00:51:03;;;;;;;13.22;9.30;;;;;;;12.62;57.73;100445.72;1788249;79;21029;-71
2022/09/03 00:53:42;;;;;;;12.88;9.23;;;;;;;12.64;57.89;100451.17;1766233;79;21745;-74
2022/09/03 00:56:35;;;;;;;21.82;10.40;;;;;;;12.61;57.91;100442.20;1775402;78;21087;-72
2022/09/03 00:59:28;;;;;;;14.45;8.45;;;;;;;12.57;58.10;100445.63;1784327;78;20974;-73
2022/09/03 01:02:21;;;;;;;14.55;10.30;;;;;;;12.53;58.42;100449.36;1767216;78;21534;-75
2022/09/03 01:05:02;;;;;;;13.28;10.30;;;;;;;12.53;58.33;100452.06;1787189;79;21016;-75
2022/09/03 01:08:04;;;;;;;15.30;8.80;;;;;;;12.55;58.33;100453.17;1798648;79;21142;-72
2022/09/03 01:11:02;;;;;;;16.50;9.28;;;;;;;12.56;58.21;100450.77;1707707;84;20909;-74
2022/09/03 01:13:37;;;;;;;13.60;8.70;;;;;;;12.58;58.02;100451.33;1706130;83;21100;-77
2022/09/03 01:16:27;;;;;;;11.20;9.08;;;;;;;12.58;58.29;100450.80;1759756;80;21640;-72
2022/09/03 01:19:02;;;;;;;14.00;9.78;;;;;;;12.55;58.25;100449.95;1745280;79;21109;-73
2022/09/03 01:21:46;;;;;;;12.78;8.50;;;;;;;12.52;58.31;100453.11;1794078;79;22440;-72
2022/09/03 01:24:30;;;;;;;10.15;8.30;;;;;;;12.54;58.25;100449.66;1778457;79;21558;-71
2022/09/03 01:27:11;;;;;;;11.25;8.63;;;;;;;12.56;58.21;100450.24;1796831;79;20973;-72
2022/09/03 01:29:59;;;;;;;13.32;10.70;;;;;;;12.55;58.33;100445.90;1796560;78;21077;-75
2022/09/03 01:32:46;;;;;;;15.23;8.98;;;;;;;12.51;58.48;100450.16;1780552;79;21041;-70
2022/09/03 01:35:40;;;;;;;18.55;11.15;;;;;;;12.51;58.55;100440.70;1787207;78;21134;-70
2022/09/03 01:38:57;;;;;;;17.82;10.50;;;;;;;12.49;58.93;100443.34;1794391;79;21092;-68
2022/09/03 01:45:07;;;;;;;13.62;10.08;;;;;;;12.37;59.43;100439.38;1787527;78;21034;-74
2022/09/03 01:48:03;;;;;;;17.20;8.90;;;;;;;12.37;59.52;100448.83;1782132;79;21482;-70
2022/09/03 01:50:43;;;;;;;12.45;8.63;;;;;;;12.40;59.52;100451.55;1765477;81;21185;-71
2022/09/03 01:53:37;;;;;;;16.80;10.90;;;;;;;12.39;59.75;100450.73;1785459;78;21082;-71
2022/09/03 01:56:39;;;;;;;14.73;8.88;;;;;;;12.34;59.88;100452.52;1784685;79;21013;-69
2022/09/03 01:59:18;;;;;;;15.00;9.18;;;;;;;12.31;59.85;100447.09;1763188;80;21008;-68
2022/09/03 02:02:05;;;;;;;13.45;10.40;;;;;;;12.23;60.23;100450.98;1816505;78;21065;-70
2022/09/03 02:04:32;;;;;;;12.75;9.18;;;;;;;12.20;60.24;100447.95;1787538;78;21056;-72
2022/09/03 02:07:00;;;;;;;11.20;8.10;;;;;;;12.19;60.16;100449.83;1781522;78;21058;-70
2022/09/03 02:09:27;;;;;;;15.05;10.45;;;;;;;12.20;60.25;100451.48;1755684;79;20986;-68
2022/09/03 02:12:17;;;;;;;14.20;8.03;;;;;;;12.21;60.20;100455.81;1774742;79;21079;-70
2022/09/03 02:14:44;;;;;;;12.03;7.60;;;;;;;12.25;60.21;100457.49;1796659;78;21573;-68
2022/09/03 02:17:10;;;;;;;13.35;8.50;;;;;;;12.28;60.17;100453.52;1771693;79;21128;-69
2022/09/03 02:19:38;;;;;;;9.95;7.92;;;;;;;12.27;60.16;100454.03;1790923;79;21012;-71
2022/09/03 02:22:04;;;;;;;11.93;8.73;;;;;;;12.27;60.21;100454.56;1783109;80;21086;-69
2022/09/03 02:24:31;;;;;;;14.53;8.80;;;;;;;12.26;60.17;100456.44;1783169;80;21000;-69
2022/09/03 02:26:58;;;;;;;10.90;7.40;;;;;;;12.26;60.31;100453.74;1768936;79;21090;-69
2022/09/03 02:29:25;;;;;;;13.48;7.92;;;;;;;12.24;60.49;100460.72;1787179;78;21940;-69
2022/09/03 02:31:53;;;;;;;12.40;7.65;;;;;;;12.21;60.55;100455.81;1783141;80;21041;-70
2022/09/03 02:34:20;;;;;;;12.90;7.80;;;;;;;12.21;60.57;100453.13;1784819;79;21064;-70
2022/09/03 02:36:46;;;;;;;15.83;8.95;;;;;;;12.16;60.77;100450.33;1786432;78;21005;-70
2022/09/03 02:39:14;;;;;;;11.18;7.95;;;;;;;12.16;60.70;100453.55;1783307;80;20987;-69
2022/09/03 02:41:42;;;;;;;14.20;8.70;;;;;;;12.19;60.72;100453.05;1783177;80;21088;-68
2022/09/03 02:44:24;;;;;;;11.30;7.70;;;;;;;12.19;60.65;100455.23;1787352;78;21986;-69
2022/09/03 02:46:57;;;;;;;13.90;7.92;;;;;;;12.20;60.71;100454.17;1786497;78;20927;-67
2022/09/03 02:49:24;;;;;;;11.60;8.08;;;;;;;12.23;60.50;100455.55;1791308;79;21041;-70
2022/09/03 02:51:53;;;;;;;13.75;8.10;;;;;;;12.20;60.83;100456.87;1789883;78;21022;-70
2022/09/03 02:54:20;;;;;;;13.18;9.18;;;;;;;12.15;60.94;100454.60;1770345;79;21763;-70
2022/09/03 02:56:48;;;;;;;11.53;8.35;;;;;;;12.15;60.89;100452.73;1814759;78;21473;-67
2022/09/03 02:59:18;;;;;;;11.63;8.20;;;;;;;12.15;61.01;100454.60;1821121;78;21753;-71
2022/09/03 03:01:48;;;;;;;12.28;8.15;;;;;;;12.16;61.05;100458.95;1821304;78;20975;-69
2022/09/03 03:04:15;;;;;;;16.93;9.33;;;;;;;12.16;61.13;100459.77;1812458;78;21901;-69
2022/09/03 03:06:42;;;;;;;15.88;9.38;;;;;;;12.19;61.01;100463.84;1795467;79;21131;-69
2022/09/03 03:09:09;;;;;;;11.12;8.05;;;;;;;12.22;60.92;100457.46;1771939;80;21066;-69
2022/09/03 03:11:35;;;;;;;9.95;6.83;;;;;;;12.25;60.98;100457.49;1794142;79;20997;-68
2022/09/03 03:14:03;;;;;;;9.20;7.35;;;;;;;12.24;60.91;100454.50;1794163;80;21009;-69
2022/09/03 03:16:30;;;;;;;17.62;8.80;;;;;;;12.23;61.00;100455.03;1794451;79;21061;-70
2022/09/03 03:18:57;;;;;;;10.98;7.90;;;;;;;12.20;61.20;100447.95;1788119;80;21117;-69
2022/09/03 03:21:24;;;;;;;13.00;9.60;;;;;;;12.20;61.13;100460.92;1794026;79;21001;-67
2022/09/03 03:23:51;;;;;;;14.58;8.05;;;;;;;12.20;61.10;100461.44;1794152;80;21131;-69
2022/09/03 03:26:19;;;;;;;10.08;8.03;;;;;;;12.22;61.14;100466.08;1775413;79;21018;-69
2022/09/03 03:28:47;;;;;;;12.30;8.78;;;;;;;12.21;61.13;100465.25;1770812;79;21503;-69
2022/09/03 03:31:19;;;;;;;13.68;8.78;;;;;;;12.20;61.09;100464.96;1788718;79;21792;-70
2022/09/03 03:34:00;;;;;;;11.90;7.40;;;;;;;12.21;61.03;100469.30;1780039;80;21527;-68
2022/09/03 03:36:29;;;;;;;15.40;8.58;;;;;;;12.20;61.03;100477.09;1768640;80;20980;-70
2022/09/03 03:38:57;;;;;;;11.12;7.83;;;;;;;12.22;60.89;100473.64;1762703;81;20926;-70
2022/09/03 03:41:32;;;;;;;13.68;7.97;;;;;;;12.26;60.79;100478.55;1764964;80;21045;-69
2022/09/03 03:44:04;;;;;;;16.27;9.55;;;;;;;12.24;60.79;100478.25;1762750;81;21096;-72
2022/09/03 03:46:37;;;;;;;12.68;8.33;;;;;;;12.24;60.81;100471.50;1785769;79;21168;-69
2022/09/03 03:49:05;;;;;;;13.03;8.75;;;;;;;12.27;60.67;100475.61;1785344;79;20984;-70
2022/09/03 03:51:33;;;;;;;18.70;9.48;;;;;;;12.31;60.67;100475.41;1756664;80;21502;-69
2022/09/03 03:54:00;;;;;;;15.13;10.05;;;;;;;12.29;60.64;100476.70;1772728;80;21018;-70
2022/09/03 03:56:27;;;;;;;14.65;9.05;;;;;;;12.30;60.61;100477.81;1741480;81;21550;-70
2022/09/03 03:58:54;;;;;;;15.15;8.88;;;;;;;12.33;60.32;100477.32;1741506;81;21508;-69
2022/09/03 04:01:23;;;;;;;16.75;9.60;;;;;;;12.38;60.01;100478.77;1763016;81;20918;-70
2022/09/03 04:03:50;;;;;;;19.00;9.45;;;;;;;12.44;59.85;100484.55;1777758;79;21049;-70
2022/09/03 04:06:18;;;;;;;13.28;9.00;;;;;;;12.48;59.77;100484.34;1766630;80;21062;-70
2022/09/03 04:08:47;;;;;;;15.72;8.75;;;;;;;12.52;59.61;100477.92;1765393;81;21133;-69
2022/09/03 04:11:17;;;;;;;20.72;12.35;;;;;;;12.54;59.63;100480.69;1781003;78;21002;-72
2022/09/03 04:13:45;;;;;;;16.48;11.15;;;;;;;12.56;59.77;100480.45;1793703;79;21535;-70
2022/09/03 04:16:17;;;;;;;14.85;10.15;;;;;;;12.55;59.83;100480.16;1767322;80;21003;-70
2022/09/03 04:18:44;;;;;;;14.95;10.15;;;;;;;12.59;59.78;100485.35;1769190;80;21480;-69
2022/09/03 04:21:16;;;;;;;12.43;9.55;;;;;;;12.63;59.71;100486.50;1762323;81;21115;-71
2022/09/03 04:23:44;;;;;;;12.93;9.40;;;;;;;12.65;59.65;100491.13;1771202;78;20974;-72
2022/09/03 04:26:16;;;;;;;12.43;9.60;;;;;;;12.62;59.65;100493.77;1766273;80;21037;-70
2022/09/03 04:28:44;;;;;;;14.38;8.70;;;;;;;12.65;59.66;100495.18;1773458;78;21058;-72
2022/09/03 04:31:13;;;;;;;15.68;9.98;;;;;;;12.66;59.64;100488.17;1793884;79;20940;-71
2022/09/03 04:33:39;;;;;;;15.68;8.10;;;;;;;12.63;59.67;100485.97;1788214;78;21106;-70
2022/09/03 04:36:16;;;;;;;22.82;7.58;;;;;;;12.64;59.79;100486.79;1777953;79;21069;-71
2022/09/03 04:38:44;;;;;;;12.30;9.98;;;;;;;12.64;60.00;100491.66;1765009;81;22270;-70
2022/09/03 04:41:17;;;;;;;14.40;10.18;;;;;;;12.65;60.01;100487.91;1765570;78;21018;-70
2022/09/03 04:43:43;;;;;;;12.73;9.08;;;;;;;12.66;60.07;100492.78;1766456;78;21495;-69
2022/09/03 04:46:12;;;;;;;14.25;8.90;;;;;;;12.70;60.11;100490.40;1789641;80;21114;-72
2022/09/03 04:48:39;;;;;;;16.75;9.45;;;;;;;12.71;60.30;100484.73;1766536;79;20984;-70
2022/09/03 04:51:14;;;;;;;14.15;10.38;;;;;;;12.69;60.41;100490.92;1765372;81;20942;-70
2022/09/03 04:53:44;;;;;;;19.65;9.98;;;;;;;12.68;60.77;100486.59;1765302;81;21073;-68
2022/09/03 04:56:17;;;;;;;18.65;10.68;;;;;;;12.68;60.72;100488.76;1752151;78;21108;-70
2022/09/03 04:58:45;;;;;;;20.48;12.37;;;;;;;12.71;60.65;100490.13;1793886;80;20993;-70
2022/09/03 05:01:16;;;;;;;20.08;13.70;;;;;;;12.75;60.76;100489.95;1794068;80;21022;-73
2022/09/03 05:03:45;;;;;;;31.02;15.10;;;;;;;12.80;60.34;100487.34;1787247;80;22223;-70
2022/09/03 05:06:12;;;;;;;20.55;11.93;;;;;;;12.87;60.26;100485.28;1791202;80;21563;-70
2022/09/03 05:08:39;;;;;;;17.70;11.03;;;;;;;12.91;60.24;100487.78;1796508;79;21743;-70
2022/09/03 05:11:07;;;;;;;16.87;9.95;;;;;;;12.97;60.18;100490.03;1796510;78;21108;-69
2022/09/03 05:13:35;;;;;;;16.25;8.88;;;;;;;12.99;60.21;100488.73;1796490;79;20989;-68
2022/09/03 05:16:05;;;;;;;17.45;10.05;;;;;;;12.98;60.16;100490.33;1794143;78;21075;-71
2022/09/03 05:18:36;;;;;;;13.90;7.55;;;;;;;13.03;60.22;100490.41;1782739;79;21565;-70
2022/09/03 05:21:07;;;;;;;16.37;9.30;;;;;;;13.09;60.03;100502.38;1783293;80;21108;-71
2022/09/03 05:23:38;;;;;;;20.15;9.58;;;;;;;13.17;59.78;100505.77;1780481;79;21110;-70
2022/09/03 05:26:08;;;;;;;13.80;9.38;;;;;;;13.21;59.35;100505.56;1767082;79;20995;-70
2022/09/03 05:28:37;;;;;;;13.93;8.98;;;;;;;13.22;59.13;100503.97;1765139;81;20926;-68
2022/09/03 05:31:06;;;;;;;15.23;7.72;;;;;;;13.24;58.95;100492.90;1770870;78;21020;-70
2022/09/03 05:33:36;;;;;;;13.08;8.00;;;;;;;13.26;58.85;100496.19;1785275;78;21008;-71
2022/09/03 05:36:05;;;;;;;9.10;5.83;;;;;;;13.30;58.74;100505.42;1792311;79;21373;-71
2022/09/03 05:38:32;;;;;;;10.88;6.87;;;;;;;13.36;58.75;100506.61;1794082;79;21082;-69
2022/09/03 05:41:03;;;;;;;9.13;5.90;;;;;;;13.37;59.19;100500.68;1794410;78;20973;-70
2022/09/03 05:43:31;;;;;;;10.55;6.12;;;;;;;13.34;59.45;100495.75;1783557;80;21030;-71
2022/09/03 05:46:08;;;;;;;10.98;6.78;;;;;;;13.32;59.63;100508.18;1787091;79;21480;-71
2022/09/03 05:48:37;;;;;;;11.40;6.72;;;;;;;13.31;59.63;100504.36;1783274;80;21269;-70
2022/09/03 05:51:09;;;;;;;10.58;6.40;;;;;;;13.36;59.66;100512.55;1788782;79;21017;-70
2022/09/03 05:53:38;;;;;;;10.28;7.08;;;;;;;13.37;59.66;100505.55;1771283;79;20993;-69
2022/09/03 05:56:17;;;;;;;8.30;6.00;;;;;;;13.40;59.62;100506.40;1774514;78;20918;-70
2022/09/03 05:58:46;;;;;;;12.20;6.25;;;;;;;13.44;59.51;100511.59;1779655;78;21020;-70
2022/09/03 06:01:20;;;;;;;8.90;6.03;;;;;;;13.50;59.25;100508.42;1790265;79;21123;-70
2022/09/03 06:03:54;;;;;;;8.85;7.50;;;;;;;13.55;59.22;100500.39;1795590;79;21086;-68
2022/09/03 06:06:24;;;;;;;8.48;6.30;;;;;;;13.62;59.20;100498.88;1781549;78;20970;-69
2022/09/03 06:08:54;;;;;;;14.35;7.80;;;;;;;13.66;59.25;100496.77;1791226;79;21053;-71
2022/09/03 06:11:25;;;;;;;9.88;6.42;;;;;;;13.73;59.10;100500.63;1788337;79;21061;-69
2022/09/03 06:13:50;;;;;;;17.98;8.13;;;;;;;13.80;58.79;100508.85;1762881;80;21133;-71
2022/09/03 06:16:17;;;;;;;17.95;11.03;;;;;;;13.86;58.60;100505.68;1774958;80;20891;-69
2022/09/03 06:18:44;;;;;;;10.50;7.25;;;;;;;13.89;58.69;100496.52;1778485;80;21034;-67
2022/09/03 06:21:10;;;;;;;10.68;7.33;;;;;;;13.92;58.15;100500.06;1764795;80;21057;-71
2022/09/03 06:23:37;;;;;;;12.00;6.72;;;;;;;13.97;58.13;100501.48;1786271;79;21429;-69
2022/09/03 06:26:10;;;;;;;8.20;6.20;;;;;;;14.04;58.16;100498.59;1773940;80;21130;-72
2022/09/03 06:28:40;;;;;;;14.93;7.92;;;;;;;14.10;58.12;100498.91;1761391;78;20945;-71
2022/09/03 06:31:08;;;;;;;9.70;6.78;;;;;;;14.20;57.66;100499.56;1778300;80;21538;-71
2022/09/03 06:33:36;;;;;;;9.68;6.55;;;;;;;14.27;57.40;100495.61;1782536;79;21068;-72
2022/09/03 06:36:05;;;;;;;10.90;6.42;;;;;;;14.36;57.03;100492.75;1791218;80;20946;-70
2022/09/03 06:38:34;;;;;;;11.03;6.40;;;;;;;14.42;56.56;100488.75;1767593;79;21243;-69
2022/09/03 06:41:19;;;;;;;9.00;6.25;;;;;;;14.49;56.23;100490.16;1767727;79;21820;-68
2022/09/03 06:43:42;;;;;;;15.63;8.83;;;;;;;14.57;55.96;100492.43;1766937;79;20989;-70
2022/09/03 06:46:13;;;;;;;12.65;7.78;;;;;;;14.68;55.32;100500.91;1780363;79;21061;-70
2022/09/03 06:48:40;;;;;;;7.72;5.35;;;;;;;14.79;54.96;100499.11;1773306;79;21556;-70
2022/09/03 06:51:10;;;;;;;13.13;4.90;;;;;;;14.87;54.32;100499.20;1783396;79;22060;-70
2022/09/03 06:53:39;;;;;;;13.62;8.80;;;;;;;14.95;54.12;100505.48;1775620;79;20995;-71
2022/09/03 06:56:09;;;;;;;7.03;6.35;;;;;;;15.03;53.29;100497.69;1787091;79;21022;-69
2022/09/03 06:58:42;;;;;;;15.00;5.30;;;;;;;15.11;52.94;100508.57;1787468;78;21042;-71
2022/09/03 07:01:12;;;;;;;14.43;5.65;;;;;;;15.17;52.72;100505.66;1791689;79;21026;-70
2022/09/03 07:03:41;;;;;;;7.90;5.80;;;;;;;15.24;52.45;100499.48;1762761;79;21773;-71
2022/09/03 07:06:18;;;;;;;7.90;5.12;;;;;;;15.31;52.48;100500.59;1761856;80;20946;-72
2022/09/03 07:08:45;;;;;;;8.28;4.22;;;;;;;15.39;52.41;100504.73;1761065;79;21000;-70
2022/09/03 07:11:18;;;;;;;7.67;4.65;;;;;;;15.47;52.15;100503.69;1757393;81;21008;-70
2022/09/03 07:13:48;;;;;;;8.08;5.17;;;;;;;15.56;52.01;100499.97;1766665;79;21058;-70
2022/09/03 07:16:20;;;;;;;8.40;5.53;;;;;;;15.63;51.92;100504.06;1762264;80;21083;-70
2022/09/03 07:18:48;;;;;;;12.23;6.00;;;;;;;15.69;51.30;100508.98;1775005;80;21029;-69
2022/09/03 07:21:20;;;;;;;10.10;6.10;;;;;;;15.70;51.41;100510.08;1781155;80;21054;-70
2022/09/03 07:23:47;;;;;;;9.13;5.70;;;;;;;15.77;51.43;100499.55;1766013;79;21522;-69
2022/09/03 07:26:19;;;;;;;8.93;6.30;;;;;;;15.85;50.88;100509.88;1775946;79;21559;-72
2022/09/03 07:28:46;;;;;;;9.38;5.92;;;;;;;15.81;51.07;100497.39;1790971;79;21995;-71
2022/09/03 07:31:16;;;;;;;10.08;7.12;;;;;;;15.85;51.32;100494.95;1791621;79;20994;-70
2022/09/03 07:33:43;;;;;;;8.70;5.80;;;;;;;15.92;51.41;100490.91;1789326;79;21060;-70
2022/09/03 07:36:13;;;;;;;9.68;5.97;;;;;;;16.01;51.12;100500.20;1778225;80;21069;-68
2022/09/03 07:38:42;;;;;;;9.43;6.58;;;;;;;16.06;51.04;100502.94;1769468;79;21081;-70
2022/09/03 07:41:09;;;;;;;8.58;6.67;;;;;;;16.13;51.24;100511.63;1786973;80;21216;-69
2022/09/03 07:43:39;;;;;;;9.75;6.55;;;;;;;16.11;51.63;100506.99;1770440;79;20920;-69
2022/09/03 07:46:07;;;;;;;12.35;7.15;;;;;;;16.08;51.89;100509.43;1791262;80;21065;-71
2022/09/03 07:48:34;;;;;;;10.55;6.78;;;;;;;16.04;52.18;100509.69;1786743;79;21042;-71
2022/09/03 07:51:00;;;;;;;10.58;5.92;;;;;;;16.07;52.54;100509.15;1766334;79;21067;-70
2022/09/03 07:53:28;;;;;;;20.85;5.78;;;;;;;16.11;52.33;100511.06;1757028;81;22126;-69
2022/09/03 07:56:04;;;;;;;7.50;5.55;;;;;;;16.14;52.18;100513.27;1757191;81;21006;-70
2022/09/03 07:58:32;;;;;;;5.80;4.67;;;;;;;16.14;52.33;100510.55;1792344;79;21490;-70
2022/09/03 08:01:04;;;;;;;8.48;5.28;;;;;;;16.13;52.38;100510.27;1791915;80;21616;-71
2022/09/03 08:03:31;;;;;;;10.15;6.00;;;;;;;16.14;52.38;100509.19;1790409;79;20991;-73
2022/09/03 08:06:06;;;;;;;9.88;6.53;;;;;;;16.18;52.24;100514.90;1787798;79;22099;-70
2022/09/03 08:08:39;;;;;;;7.37;6.20;;;;;;;16.26;52.11;100509.51;1758157;81;21001;-69
2022/09/03 08:11:09;;;;;;;7.25;5.10;;;;;;;16.32;51.89;100509.23;1764352;81;20935;-70
2022/09/03 08:13:43;;;;;;;13.68;5.42;;;;;;;16.41;51.68;100506.80;1798418;78;21488;-69
2022/09/03 08:16:12;;;;;;;8.65;5.97;;;;;;;16.48;51.62;100497.34;1772824;79;20895;-68
2022/09/03 08:18:39;;;;;;;10.38;5.95;;;;;;;16.57;51.39;100499.80;1776285;79;21201;-69
2022/09/03 08:21:16;;;;;;;14.78;7.03;;;;;;;16.69;51.15;100501.48;1794771;78;20986;-75
2022/09/03 08:23:44;;;;;;;12.25;7.28;;;;;;;16.76;50.57;100497.94;1745133;79;21057;-68
2022/09/03 08:26:11;;;;;;;11.95;8.43;;;;;;;16.82;50.50;100501.75;1774426;78;21030;-71
2022/09/03 08:28:38;;;;;;;12.15;9.10;;;;;;;16.84;50.34;100490.05;1777457;79;21547;-69
2022/09/03 08:31:12;;;;;;;9.50;5.37;;;;;;;16.88;50.29;100500.64;1794925;78;21210;-69
2022/09/03 08:33:41;;;;;;;8.13;4.65;;;;;;;16.88;49.97;100508.80;1796417;78;21061;-67
2022/09/03 08:36:18;;;;;;;8.63;3.77;;;;;;;16.90;49.83;100506.64;1793202;79;21090;-71
2022/09/03 08:38:45;;;;;;;6.33;4.58;;;;;;;16.97;49.49;100501.77;1797132;79;20946;-68
2022/09/03 08:41:16;;;;;;;5.95;4.80;;;;;;;17.04;49.15;100510.98;1795837;79;21025;-71
2022/09/03 08:44:24;;;;;;;8.30;4.22;;;;;;;17.15;48.92;100510.44;1796627;79;21327;-71
2022/09/03 08:47:14;;;;;;;4.85;3.70;;;;;;;17.22;48.49;100507.70;1796448;79;21025;-69
2022/09/03 08:50:04;;;;;;;12.03;3.58;;;;;;;17.37;47.69;100504.97;1787438;78;20949;-70
2022/09/03 08:52:48;;;;;;;4.90;3.33;;;;;;;17.49;47.01;100503.87;1795973;78;21471;-68
2022/09/03 08:55:35;;;;;;;6.65;4.25;;;;;;;17.56;47.14;100487.52;1766913;79;21550;-68
2022/09/03 08:58:21;;;;;;;7.35;4.12;;;;;;;17.59;46.59;100490.27;1768868;78;21231;-70
2022/09/03 09:01:01;;;;;;;7.87;3.33;;;;;;;17.59;46.81;100482.94;1766781;79;20966;-69
2022/09/03 09:03:39;;;;;;;4.05;3.35;;;;;;;17.59;46.50;100477.48;1776848;78;21005;-68
2022/09/03 09:06:44;;;;;;;4.75;3.72;;;;;;;17.64;46.57;100473.39;1796347;79;20990;-67
2022/09/03 09:09:42;;;;;;;5.97;3.70;;;;;;;17.71;46.07;100468.45;1793903;78;21005;-68
2022/09/03 09:12:42;;;;;;;5.65;3.02;;;;;;;17.90;45.11;100464.56;1767080;79;21001;-69
2022/09/03 09:15:38;;;;;;;5.53;3.52;;;;;;;18.03;44.92;100460.44;1781587;79;20989;-69
2022/09/03 09:18:16;;;;;;;5.80;2.83;;;;;;;18.12;44.70;100458.21;1772104;78;21535;-70
2022/09/03 09:20:49;;;;;;;2.98;2.40;;;;;;;18.23;43.17;100461.67;1772394;79;21081;-70
2022/09/03 09:23:23;;;;;;;;;;;;;;;18.27;42.71;100457.31;1799419;79;21006;-68
2022/09/03 09:25:50;;;;;;;2.50;2.08;;;;;;;18.27;42.65;100456.73;1796774;79;21239;-71
2022/09/03 09:28:20;;;;;;;2.77;2.22;;;;;;;18.27;42.99;100454.59;1794032;78;21523;-69
2022/09/03 09:30:48;;;;;;;2.10;1.90;;;;;;;18.32;42.05;100455.89;1778179;78;21002;-69
2022/09/03 09:33:15;;;;;;;4.92;2.27;;;;;;;18.36;41.93;100461.61;1756591;81;21016;-70
2022/09/03 09:35:43;;;;;;;2.75;2.02;;;;;;;18.45;41.76;100459.91;1756724;81;21052;-70
2022/09/03 09:38:10;;;;;;;4.20;2.40;;;;;;;18.53;41.56;100457.94;1792649;78;21139;-70
2022/09/03 09:40:42;;;;;;;10.28;2.77;;;;;;;18.63;41.35;100466.89;1778225;79;20942;-68
2022/09/03 09:43:20;;;;;;;4.42;1.87;;;;;;;18.69;41.10;100462.22;1779798;78;21011;-70
2022/09/03 09:45:49;;;;;;;2.98;2.70;;;;;;;18.68;40.89;100458.67;1770361;78;20998;-69
2022/09/03 09:48:30;;;;;;;5.75;2.50;;;;;;;18.69;41.05;100464.39;1795361;78;21554;-69
2022/09/03 09:51:15;;;;;;;3.83;2.25;;;;;;;18.70;41.32;100463.27;1779361;79;21067;-69
2022/09/03 09:53:43;;;;;;;4.65;2.00;;;;;;;18.70;41.02;100465.22;1794185;78;21692;-68
2022/09/03 09:56:24;;;;;;;2.70;2.45;;;;;;;18.68;40.61;100459.22;1791439;78;21349;-71
2022/09/03 09:59:06;;;;;;;3.27;2.10;;;;;;;18.69;40.68;100466.30;1776275;78;20985;-69
2022/09/03 10:01:41;;;;;;;4.53;2.62;;;;;;;18.63;40.62;100471.52;1778448;78;21070;-70
2022/09/03 10:04:23;;;;;;;6.03;2.65;;;;;;;18.64;40.77;100471.25;1790052;78;21118;-71
2022/09/03 10:07:04;;;;;;;5.03;3.33;;;;;;;18.61;40.92;100464.16;1771978;78;21044;-71
2022/09/03 10:09:31;;;;;;;4.08;2.58;;;;;;;18.67;40.97;100471.21;1790636;78;21281;-71
2022/09/03 10:12:14;;;;;;;4.55;3.20;;;;;;;18.70;41.00;100466.58;1791734;79;21021;-70
2022/09/03 10:15:12;;;;;;;3.77;2.83;;;;;;;18.70;41.15;100472.03;1786719;79;21041;-70
2022/09/03 10:17:53;;;;;;;3.85;2.80;;;;;;;18.77;40.84;100468.95;1785160;79;21264;-72
2022/09/03 10:20:36;;;;;;;6.35;2.80;;;;;;;18.87;40.95;100474.33;1760755;79;21060;-72
2022/09/03 10:23:24;;;;;;;5.05;2.45;;;;;;;18.94;40.56;100466.65;1794199;79;20953;-70
2022/09/03 10:26:06;;;;;;;3.55;2.72;;;;;;;18.94;40.46;100466.65;1788214;79;22168;-73
2022/09/03 10:28:40;;;;;;;3.15;2.60;;;;;;;18.91;40.60;100460.38;1788038;78;21101;-72
2022/09/03 10:31:35;;;;;;;6.62;2.85;;;;;;;18.97;40.66;100457.89;1728128;81;21677;-70
2022/09/03 10:34:36;;;;;;;10.20;5.12;;;;;;;18.94;39.93;100456.56;1705953;84;21033;-72
2022/09/03 10:37:29;;;;;;;5.28;4.75;;;;;;;18.91;39.93;100450.30;1751985;80;20940;-71
2022/09/03 10:40:15;;;;;;;8.23;4.47;;;;;;;18.97;39.17;100449.16;1759263;81;21626;-71
2022/09/03 10:43:28;;;;;;;8.05;3.33;;;;;;;19.03;39.38;100449.93;1758654;81;21082;-75
2022/09/03 10:46:13;;;;;;;5.30;2.75;;;;;;;19.03;39.90;100450.75;1712883;82;21279;-71
2022/09/03 10:49:16;;;;;;;3.75;2.90;;;;;;;18.96;39.63;100450.25;1735128;82;21933;-74
2022/09/03 10:52:14;;;;;;;4.53;2.62;;;;;;;18.90;39.82;100452.75;1720502;81;21332;-72
2022/09/03 10:55:18;;;;;;;3.40;2.83;;;;;;;18.93;39.98;100443.20;1741796;80;21062;-72
2022/09/03 10:57:54;;;;;;;3.90;2.85;;;;;;;18.94;40.08;100440.20;1740758;81;21017;-73
2022/09/03 11:00:21;;;;;;;7.65;3.08;;;;;;;18.92;40.02;100444.30;1736133;81;21748;-72
2022/09/03 11:03:26;;;;;;;8.45;3.17;;;;;;;18.88;39.88;100442.70;1735903;80;21000;-71
2022/09/03 11:06:05;;;;;;;5.85;2.62;;;;;;;18.84;39.96;100438.93;1730012;83;21013;-70
2022/09/03 11:08:37;;;;;;;8.10;3.35;;;;;;;18.85;40.10;100439.74;1730421;82;20925;-73
2022/09/03 11:11:25;;;;;;;11.55;3.22;;;;;;;18.86;40.27;100438.08;1719439;81;21051;-73
2022/09/03 11:13:57;;;;;;;6.03;3.77;;;;;;;18.91;40.50;100439.94;1719303;82;21262;-72
2022/09/03 11:16:34;;;;;;;5.67;3.50;;;;;;;18.93;40.59;100441.84;1731399;82;21047;-71
2022/09/03 11:19:07;;;;;;;6.83;3.60;;;;;;;18.94;40.19;100433.94;1719002;82;20947;-70
2022/09/03 11:21:34;;;;;;;3.85;3.30;;;;;;;18.95;40.03;100433.63;1729699;83;21081;-72
2022/09/03 11:24:12;;;;;;;3.77;3.15;;;;;;;18.89;39.72;100426.62;1730361;82;21010;-72
2022/09/03 11:26:47;;;;;;;4.25;2.70;;;;;;;18.89;39.89;100427.16;1679575;85;21250;-70
2022/09/03 11:29:31;;;;;;;6.40;3.05;;;;;;;18.90;39.43;100424.13;1710058;81;20950;-76
2022/09/03 11:32:07;;;;;;;4.22;2.33;;;;;;;18.89;39.27;100423.08;1708340;82;20920;-70
2022/09/03 11:34:53;;;;;;;2.80;2.40;;;;;;;18.92;39.33;100420.58;1716963;82;21019;-73
2022/09/03 11:37:27;;;;;;;7.60;3.50;;;;;;;18.97;39.37;100417.81;1730569;82;21070;-71
2022/09/03 11:40:18;;;;;;;11.00;3.35;;;;;;;19.00;39.22;100409.04;1688041;83;21265;-70
2022/09/03 11:42:44;;;;;;;5.53;3.12;;;;;;;19.05;39.32;100406.81;1717219;81;20955;-74
2022/09/03 11:45:22;;;;;;;5.22;2.80;;;;;;;19.10;38.96;100413.58;1681512;83;21098;-72
2022/09/03 11:47:49;;;;;;;4.10;3.27;;;;;;;19.11;39.01;100413.84;1697162;83;21005;-71
2022/09/03 11:50:26;;;;;;;4.25;3.80;;;;;;;19.09;39.20;100417.41;1728897;82;21078;-70
2022/09/03 11:53:09;;;;;;;5.75;3.37;;;;;;;19.10;39.25;100412.22;1705353;83;32424;-71
2022/09/03 11:56:02;;;;;;;5.58;3.50;;;;;;;19.14;39.08;100411.35;1701730;84;21026;-73
2022/09/03 11:58:35;;;;;;;6.30;3.43;;;;;;;19.13;39.19;100408.38;1694723;82;21007;-75